createdAt,value
2023-03-19T00:00:44.179Z,51
2023-03-19T00:01:51.141Z,50
2023-03-19T00:02:58.229Z,51
2023-03-19T00:04:04.857Z,50
2023-03-19T00:05:11.681Z,51
2023-03-19T00:06:18.687Z,45
2023-03-19T00:07:25.384Z,45
2023-03-19T00:08:32.476Z,45
2023-03-19T00:09:39.636Z,37
2023-03-19T00:10:46.545Z,45
2023-03-19T00:11:54.890Z,44
2023-03-19T00:13:02.690Z,45
2023-03-19T00:14:09.573Z,52
2023-03-19T00:15:19.184Z,58
2023-03-19T00:16:26.148Z,61
2023-03-19T00:17:35.050Z,52
2023-03-19T00:18:41.884Z,52
2023-03-19T00:19:50.186Z,62
2023-03-19T00:20:57.338Z,63
2023-03-19T00:22:04.400Z,66
2023-03-19T00:23:11.277Z,63
2023-03-19T00:24:18.168Z,68
2023-03-19T00:25:25.001Z,65
2023-03-19T00:26:32.593Z,66
2023-03-19T00:27:39.442Z,67
2023-03-19T00:28:47.032Z,67
2023-03-19T00:29:53.968Z,68
2023-03-19T00:31:00.818Z,66
2023-03-19T00:32:13.750Z,70
2023-03-19T00:33:20.625Z,64
2023-03-19T00:34:27.482Z,72
2023-03-19T00:35:34.572Z,68
2023-03-19T00:36:42.881Z,69
2023-03-19T00:37:49.832Z,70
2023-03-19T00:38:59.647Z,69
2023-03-19T00:40:06.643Z,70
2023-03-19T00:41:13.821Z,70
2023-03-19T00:42:20.681Z,67
2023-03-19T00:43:28.006Z,68
2023-03-19T00:44:36.545Z,71
2023-03-19T00:45:43.520Z,66
2023-03-19T00:46:50.466Z,59
2023-03-19T00:47:57.374Z,63
2023-03-19T00:49:04.222Z,68
2023-03-19T00:50:11.067Z,72
2023-03-19T00:51:17.859Z,70
2023-03-19T00:52:24.730Z,75
2023-03-19T00:53:31.684Z,77
2023-03-19T00:54:44.128Z,74
2023-03-19T00:55:51.070Z,72
2023-03-19T00:56:57.911Z,72
2023-03-19T00:58:04.695Z,75
2023-03-19T00:59:11.598Z,73
2023-03-19T01:00:18.431Z,69
2023-03-19T01:01:25.495Z,74
2023-03-19T01:02:32.340Z,76
2023-03-19T01:03:39.184Z,72
2023-03-19T01:04:46.141Z,69
2023-03-19T01:05:53.119Z,69
2023-03-19T01:07:03.122Z,72
2023-03-19T01:08:10.034Z,72
2023-03-19T01:09:17.033Z,68
2023-03-19T01:10:23.904Z,66
2023-03-19T01:11:30.719Z,67
2023-03-19T01:12:37.555Z,67
2023-03-19T01:13:46.596Z,60
2023-03-19T01:14:53.501Z,63
2023-03-19T01:16:00.544Z,60
2023-03-19T01:17:07.409Z,60
2023-03-19T01:18:14.336Z,61
2023-03-19T01:19:21.108Z,60
2023-03-19T01:20:27.991Z,65
2023-03-19T01:21:34.974Z,68
2023-03-19T01:22:41.977Z,66
2023-03-19T01:23:48.883Z,66
2023-03-19T01:24:55.856Z,69
2023-03-19T01:26:02.485Z,70
2023-03-19T01:27:09.661Z,69
2023-03-19T01:28:16.469Z,69
2023-03-19T01:29:23.319Z,66
2023-03-19T01:30:30.191Z,72
2023-03-19T01:31:37.060Z,68
2023-03-19T01:32:43.839Z,70
2023-03-19T01:33:50.769Z,73
2023-03-19T01:34:57.495Z,67
2023-03-19T01:36:04.334Z,70
2023-03-19T01:37:11.392Z,65
2023-03-19T01:38:18.186Z,61
2023-03-19T01:39:25.062Z,60
2023-03-19T01:40:32.055Z,61
2023-03-19T01:41:38.639Z,63
2023-03-19T01:42:45.436Z,62
2023-03-19T01:43:57.338Z,66
2023-03-19T01:45:04.127Z,59
2023-03-19T01:46:11.043Z,67
2023-03-19T01:47:25.447Z,64
2023-03-19T01:48:32.427Z,64
2023-03-19T01:49:44.411Z,64
2023-03-19T01:50:55.374Z,65
2023-03-19T01:52:02.476Z,60
2023-03-19T01:53:12.079Z,67
2023-03-19T01:54:16.374Z,66
2023-03-19T01:55:23.403Z,60
2023-03-19T01:56:30.351Z,61
2023-03-19T01:57:37.195Z,58
2023-03-19T01:58:43.988Z,63
2023-03-19T01:59:50.848Z,56
2023-03-19T02:00:57.913Z,58
2023-03-19T02:02:04.737Z,57
2023-03-19T02:03:17.663Z,57
2023-03-19T02:04:24.615Z,61
2023-03-19T02:05:31.355Z,61
2023-03-19T02:06:38.360Z,58
2023-03-19T02:07:45.168Z,59
2023-03-19T02:08:52.245Z,56
2023-03-19T02:09:59.267Z,57
2023-03-19T02:11:06.123Z,58
2023-03-19T02:12:12.965Z,56
2023-03-19T02:13:19.718Z,55
2023-03-19T02:14:26.528Z,51
2023-03-19T02:15:33.450Z,58
2023-03-19T02:16:40.327Z,60
2023-03-19T02:17:47.131Z,54
2023-03-19T02:18:53.944Z,59
2023-03-19T02:20:00.770Z,56
2023-03-19T02:21:10.500Z,67
2023-03-19T02:22:17.453Z,70
2023-03-19T02:23:24.564Z,58
2023-03-19T02:24:41.605Z,61
2023-03-19T02:25:48.534Z,60
2023-03-19T02:27:00.509Z,59
2023-03-19T02:28:07.462Z,57
2023-03-19T02:29:16.888Z,59
2023-03-19T02:30:23.799Z,53
2023-03-19T02:31:30.758Z,55
2023-03-19T02:32:37.752Z,50
2023-03-19T02:33:44.578Z,53
2023-03-19T02:34:59.903Z,50
2023-03-19T02:36:06.975Z,47
2023-03-19T02:37:18.855Z,48
2023-03-19T02:38:28.394Z,50
2023-03-19T02:39:35.246Z,52
2023-03-19T02:40:41.991Z,58
2023-03-19T02:41:48.811Z,59
2023-03-19T02:42:55.777Z,60
2023-03-19T02:44:02.755Z,60
2023-03-19T02:45:09.688Z,60
2023-03-19T02:46:17.610Z,63
2023-03-19T02:47:24.450Z,67
2023-03-19T02:48:31.265Z,69
2023-03-19T02:49:38.169Z,64
2023-03-19T02:50:45.204Z,56
2023-03-19T02:51:52.041Z,62
2023-03-19T02:52:58.876Z,54
2023-03-19T02:54:05.728Z,53
2023-03-19T02:55:12.627Z,61
2023-03-19T02:56:19.584Z,53
2023-03-19T02:57:26.520Z,51
2023-03-19T02:58:33.377Z,51
2023-03-19T02:59:40.214Z,53
2023-03-19T03:00:47.132Z,51
2023-03-19T03:01:54.135Z,49
2023-03-19T03:03:00.804Z,51
2023-03-19T03:04:07.633Z,50
2023-03-19T03:05:15.935Z,50
2023-03-19T03:06:22.899Z,56
2023-03-19T03:07:38.995Z,58
2023-03-19T03:08:45.995Z,51
2023-03-19T03:09:52.934Z,56
2023-03-19T03:10:59.863Z,51
2023-03-19T03:12:06.724Z,50
2023-03-19T03:13:13.585Z,46
2023-03-19T03:14:20.440Z,46
2023-03-19T03:15:27.398Z,45
2023-03-19T03:16:34.311Z,48
2023-03-19T03:17:41.273Z,54
2023-03-19T03:18:48.046Z,47
2023-03-19T03:19:54.930Z,45
2023-03-19T03:21:01.719Z,51
2023-03-19T03:22:08.651Z,46
2023-03-19T03:23:15.517Z,46
2023-03-19T03:24:22.398Z,45
2023-03-19T03:25:29.198Z,40
2023-03-19T03:26:36.224Z,40
2023-03-19T03:27:43.035Z,42
2023-03-19T03:28:49.938Z,43
2023-03-19T03:29:56.716Z,47
2023-03-19T03:31:03.507Z,48
2023-03-19T03:32:10.343Z,48
2023-03-19T03:33:17.297Z,45
2023-03-19T03:34:24.146Z,51
2023-03-19T03:35:31.175Z,42
2023-03-19T03:36:38.015Z,44
2023-03-19T03:37:44.947Z,45
2023-03-19T03:38:54.565Z,39
2023-03-19T03:40:01.452Z,39
2023-03-19T03:41:08.543Z,46
2023-03-19T03:42:15.380Z,45
2023-03-19T03:43:22.200Z,41
2023-03-19T03:44:29.101Z,44
2023-03-19T03:45:35.957Z,41
2023-03-19T03:46:42.764Z,41
2023-03-19T03:47:49.606Z,37
2023-03-19T03:48:56.529Z,39
2023-03-19T03:50:03.318Z,41
2023-03-19T03:51:10.404Z,40
2023-03-19T03:52:17.152Z,41
2023-03-19T03:53:23.980Z,42
2023-03-19T03:54:30.816Z,39
2023-03-19T03:55:37.629Z,38
2023-03-19T03:56:44.436Z,37
2023-03-19T03:57:52.624Z,39
2023-03-19T03:58:59.524Z,38
2023-03-19T04:00:06.478Z,39
2023-03-19T04:01:13.840Z,41
2023-03-19T04:02:20.710Z,44
2023-03-19T04:03:27.480Z,40
2023-03-19T04:04:34.302Z,46
2023-03-19T04:05:41.098Z,51
2023-03-19T04:06:47.929Z,51
2023-03-19T04:07:54.724Z,57
2023-03-19T04:09:01.630Z,58
2023-03-19T04:10:08.492Z,61
2023-03-19T04:11:15.397Z,64
2023-03-19T04:12:22.314Z,63
2023-03-19T04:13:29.125Z,67
2023-03-19T04:14:35.976Z,69
2023-03-19T04:15:42.862Z,68
2023-03-19T04:16:49.881Z,62
2023-03-19T04:17:56.748Z,68
2023-03-19T04:19:03.623Z,66
2023-03-19T04:20:10.556Z,65
2023-03-19T04:21:17.410Z,64
2023-03-19T04:22:24.263Z,71
2023-03-19T04:23:31.124Z,68
2023-03-19T04:24:38.060Z,65
2023-03-19T04:25:44.979Z,67
2023-03-19T04:26:51.919Z,69
2023-03-19T04:27:58.776Z,73
2023-03-19T04:29:05.582Z,70
2023-03-19T04:30:12.416Z,69
2023-03-19T04:31:19.367Z,73
2023-03-19T04:32:26.091Z,67
2023-03-19T04:33:32.954Z,75
2023-03-19T04:34:39.812Z,75
2023-03-19T04:35:46.715Z,76
2023-03-19T04:36:53.605Z,71
2023-03-19T04:38:00.496Z,71
2023-03-19T04:39:07.417Z,75
2023-03-19T04:40:14.202Z,72
2023-03-19T04:41:21.143Z,72
2023-03-19T04:42:28.001Z,71
2023-03-19T04:43:34.862Z,71
2023-03-19T04:44:41.695Z,76
2023-03-19T04:45:48.537Z,78
2023-03-19T04:46:55.343Z,74
2023-03-19T04:48:02.232Z,71
2023-03-19T04:49:09.261Z,61
2023-03-19T04:50:16.133Z,76
2023-03-19T04:51:22.916Z,75
2023-03-19T04:52:29.753Z,73
2023-03-19T04:53:36.679Z,75
2023-03-19T04:54:43.443Z,76
2023-03-19T04:55:50.240Z,76
2023-03-19T04:56:57.101Z,74
2023-03-19T04:58:04.018Z,75
2023-03-19T04:59:10.835Z,78
2023-03-19T05:00:17.844Z,72
2023-03-19T05:01:24.847Z,79
2023-03-19T05:02:31.591Z,79
2023-03-19T05:03:38.488Z,82
2023-03-19T05:04:45.291Z,82
2023-03-19T05:05:52.075Z,86
2023-03-19T05:06:58.914Z,85
2023-03-19T05:08:05.731Z,96
2023-03-19T05:09:12.546Z,93
2023-03-19T05:10:19.409Z,96
2023-03-19T05:11:26.314Z,93
2023-03-19T05:12:33.090Z,97
2023-03-19T05:13:39.869Z,96
2023-03-19T05:14:46.676Z,103
2023-03-19T05:15:53.530Z,97
2023-03-19T05:17:00.363Z,101
2023-03-19T05:18:07.336Z,107
2023-03-19T05:19:14.261Z,99
2023-03-19T05:20:21.181Z,109
2023-03-19T05:21:27.980Z,105
2023-03-19T05:22:34.885Z,109
2023-03-19T05:23:41.857Z,109
2023-03-19T05:24:48.720Z,110
2023-03-19T05:25:55.524Z,116
2023-03-19T05:27:02.298Z,109
2023-03-19T05:28:09.327Z,116
2023-03-19T05:29:16.059Z,116
2023-03-19T05:30:22.944Z,118
2023-03-19T05:31:29.875Z,120
2023-03-19T05:32:36.623Z,122
2023-03-19T05:33:43.448Z,121
2023-03-19T05:34:50.408Z,120
2023-03-19T05:35:58.327Z,123
2023-03-19T05:37:04.010Z,116
2023-03-19T05:38:10.873Z,124
2023-03-19T05:39:17.603Z,125
2023-03-19T05:40:24.516Z,119
2023-03-19T05:41:31.347Z,119
2023-03-19T05:42:38.187Z,118
2023-03-19T05:43:45.052Z,117
2023-03-19T05:44:51.877Z,123
2023-03-19T05:45:58.724Z,122
2023-03-19T05:47:05.613Z,118
2023-03-19T05:48:13.717Z,123
2023-03-19T05:49:20.524Z,118
2023-03-19T05:50:27.327Z,115
2023-03-19T05:51:34.166Z,120
2023-03-19T05:52:41.109Z,125
2023-03-19T05:53:47.911Z,117
2023-03-19T05:54:54.699Z,117
2023-03-19T05:56:01.551Z,119
2023-03-19T05:57:08.442Z,120
2023-03-19T05:58:15.350Z,119
2023-03-19T05:59:22.181Z,126
2023-03-19T06:00:29.062Z,118
2023-03-19T06:01:35.972Z,115
2023-03-19T06:02:42.748Z,118
2023-03-19T06:03:49.665Z,120
2023-03-19T06:04:56.542Z,121
2023-03-19T06:06:03.312Z,123
2023-03-19T06:07:10.268Z,122
2023-03-19T06:08:17.078Z,120
2023-03-19T06:09:24.048Z,120
2023-03-19T06:10:31.087Z,117
2023-03-19T06:11:38.008Z,115
2023-03-19T06:12:44.819Z,115
2023-03-19T06:13:51.638Z,118
2023-03-19T06:14:58.440Z,117
2023-03-19T06:16:05.475Z,119
2023-03-19T06:17:12.213Z,116
2023-03-19T06:18:19.022Z,115
2023-03-19T06:19:25.877Z,116
2023-03-19T06:20:32.985Z,114
2023-03-19T06:21:39.597Z,116
2023-03-19T06:22:46.462Z,113
2023-03-19T06:23:53.245Z,116
2023-03-19T06:25:00.091Z,118
2023-03-19T06:26:07.119Z,112
2023-03-19T06:27:14.152Z,106
2023-03-19T06:28:21.145Z,106
2023-03-19T06:29:27.908Z,102
2023-03-19T06:30:34.942Z,104
2023-03-19T06:31:41.669Z,92
2023-03-19T06:32:48.568Z,90
2023-03-19T06:33:59.227Z,95
2023-03-19T06:35:06.117Z,84
2023-03-19T06:36:13.131Z,87
2023-03-19T06:37:19.973Z,78
2023-03-19T06:38:26.804Z,84
2023-03-19T06:39:33.631Z,74
2023-03-19T06:40:40.604Z,75
2023-03-19T06:41:47.480Z,82
2023-03-19T06:42:54.412Z,66
2023-03-19T06:44:01.232Z,72
2023-03-19T06:45:08.057Z,61
2023-03-19T06:46:15.284Z,55
2023-03-19T06:47:22.145Z,66
2023-03-19T06:48:29.026Z,64
2023-03-19T06:49:35.882Z,59
2023-03-19T06:50:42.738Z,53
2023-03-19T06:51:49.631Z,56
2023-03-19T06:52:56.515Z,55
2023-03-19T06:54:03.470Z,57
2023-03-19T06:55:10.186Z,51
2023-03-19T06:56:17.014Z,47
2023-03-19T06:57:23.947Z,54
2023-03-19T06:58:30.871Z,56
2023-03-19T06:59:37.716Z,55
2023-03-19T07:00:44.561Z,45
2023-03-19T07:01:51.287Z,47
2023-03-19T07:02:58.111Z,54
2023-03-19T07:04:05.003Z,50
2023-03-19T07:05:11.734Z,57
2023-03-19T07:06:18.635Z,55
2023-03-19T07:07:25.479Z,55
2023-03-19T07:08:32.309Z,49
2023-03-19T07:09:39.281Z,53
2023-03-19T07:10:46.174Z,49
2023-03-19T07:11:52.994Z,49
2023-03-19T07:12:59.825Z,46
2023-03-19T07:14:06.636Z,44
2023-03-19T07:15:13.535Z,39
2023-03-19T07:16:20.409Z,34
2023-03-19T07:17:27.181Z,26
2023-03-19T07:18:34.004Z,29
2023-03-19T07:19:40.821Z,30
2023-03-19T07:20:47.645Z,43
2023-03-19T07:21:54.476Z,46
2023-03-19T07:23:01.243Z,39
2023-03-19T07:24:08.115Z,25
2023-03-19T07:25:14.970Z,26
2023-03-19T07:26:22.601Z,25
2023-03-19T07:27:29.501Z,28
2023-03-19T07:28:36.487Z,29
2023-03-19T07:29:43.281Z,28
2023-03-19T07:30:52.840Z,25
2023-03-19T07:31:59.887Z,35
2023-03-19T07:33:11.511Z,30
2023-03-19T07:34:21.621Z,31
2023-03-19T07:35:28.560Z,25
2023-03-19T07:36:35.408Z,32
2023-03-19T07:37:42.496Z,33
2023-03-19T07:38:49.412Z,31
2023-03-19T07:39:58.095Z,25
2023-03-19T07:41:05.872Z,25
2023-03-19T07:42:12.722Z,33
2023-03-19T07:43:19.653Z,35
2023-03-19T07:44:26.499Z,33
2023-03-19T07:45:33.433Z,34
2023-03-19T07:46:40.316Z,25
2023-03-19T07:47:49.252Z,36
2023-03-19T07:48:53.985Z,35
2023-03-19T07:50:00.824Z,41
2023-03-19T07:51:07.823Z,35
2023-03-19T07:52:14.729Z,37
2023-03-19T07:53:21.485Z,41
2023-03-19T07:54:28.340Z,31
2023-03-19T07:55:37.165Z,28
2023-03-19T07:56:42.144Z,29
2023-03-19T07:57:48.924Z,25
2023-03-19T07:58:55.746Z,32
2023-03-19T08:00:02.544Z,36
2023-03-19T08:01:09.654Z,25
2023-03-19T08:02:16.609Z,35
2023-03-19T08:03:23.377Z,28
2023-03-19T08:04:30.176Z,28
2023-03-19T08:05:36.933Z,50
2023-03-19T08:06:43.709Z,46
2023-03-19T08:07:50.460Z,35
2023-03-19T08:08:57.288Z,48
2023-03-19T08:10:04.157Z,30
2023-03-19T08:11:11.102Z,26
2023-03-19T08:12:17.960Z,48
2023-03-19T08:13:24.778Z,52
2023-03-19T08:14:31.692Z,57
2023-03-19T08:15:38.527Z,28
2023-03-19T08:16:45.350Z,58
2023-03-19T08:17:52.341Z,47
2023-03-19T08:19:04.062Z,53
2023-03-19T08:20:10.913Z,54
2023-03-19T08:21:17.765Z,32
2023-03-19T08:22:24.646Z,34
2023-03-19T08:23:32.169Z,31
2023-03-19T08:24:38.930Z,45
2023-03-19T08:25:45.820Z,27
2023-03-19T08:26:52.599Z,42
2023-03-19T08:27:59.568Z,44
2023-03-19T08:29:06.503Z,51
2023-03-19T08:30:13.304Z,38
2023-03-19T08:31:20.265Z,26
2023-03-19T08:32:27.023Z,27
2023-03-19T08:33:33.867Z,36
2023-03-19T08:34:40.735Z,45
2023-03-19T08:35:47.628Z,55
2023-03-19T08:36:54.377Z,50
2023-03-19T08:38:01.195Z,35
2023-03-19T08:39:08.001Z,47
2023-03-19T08:40:14.795Z,31
2023-03-19T08:41:21.672Z,25
2023-03-19T08:42:28.492Z,49
2023-03-19T08:43:35.283Z,31
2023-03-19T08:44:42.178Z,42
2023-03-19T08:45:49.052Z,47
2023-03-19T08:46:55.891Z,52
2023-03-19T08:48:02.792Z,41
2023-03-19T08:49:09.593Z,32
2023-03-19T08:50:16.394Z,52
2023-03-19T08:51:23.357Z,54
2023-03-19T08:52:30.163Z,29
2023-03-19T08:53:36.946Z,38
2023-03-19T08:54:43.751Z,50
2023-03-19T08:55:50.728Z,25
2023-03-19T08:56:57.618Z,25
2023-03-19T08:58:04.531Z,44
2023-03-19T08:59:11.535Z,28
2023-03-19T09:00:18.276Z,37
2023-03-19T09:01:25.321Z,35
2023-03-19T09:02:32.079Z,29
2023-03-19T09:03:38.955Z,25
2023-03-19T09:04:45.939Z,33
2023-03-19T09:05:52.718Z,27
2023-03-19T09:06:59.567Z,31
2023-03-19T09:08:06.447Z,31
2023-03-19T09:09:13.349Z,31
2023-03-19T09:10:20.202Z,44
2023-03-19T09:11:27.050Z,41
2023-03-19T09:12:33.875Z,25
2023-03-19T09:13:40.789Z,44
2023-03-19T09:14:47.788Z,44
2023-03-19T09:15:54.656Z,46
2023-03-19T09:17:01.595Z,33
2023-03-19T09:18:08.462Z,30
2023-03-19T09:19:15.410Z,31
2023-03-19T09:20:22.270Z,32
2023-03-19T09:21:29.057Z,61
2023-03-19T09:22:35.870Z,44
2023-03-19T09:23:42.677Z,32
2023-03-19T09:24:49.535Z,44
2023-03-19T09:25:56.495Z,29
2023-03-19T09:27:03.284Z,54
2023-03-19T09:28:10.115Z,30
2023-03-19T09:29:16.894Z,30
2023-03-19T09:30:23.745Z,50
2023-03-19T09:31:30.607Z,43
2023-03-19T09:32:37.499Z,32
2023-03-19T09:33:44.279Z,35
2023-03-19T09:34:51.091Z,47
2023-03-19T09:35:57.879Z,30
2023-03-19T09:37:04.835Z,26
2023-03-19T09:38:11.746Z,40
2023-03-19T09:39:18.545Z,37
2023-03-19T09:40:25.332Z,34
2023-03-19T09:41:37.191Z,27
2023-03-19T09:42:51.943Z,39
2023-03-19T09:44:02.069Z,36
2023-03-19T09:45:14.063Z,48
2023-03-19T09:46:22.696Z,37
2023-03-19T09:47:27.808Z,28
2023-03-19T09:48:37.704Z,30
2023-03-19T09:49:44.461Z,31
2023-03-19T09:50:51.291Z,38
2023-03-19T09:51:58.124Z,42
2023-03-19T09:53:15.070Z,37
2023-03-19T09:54:21.903Z,47
2023-03-19T09:55:36.541Z,43
2023-03-19T09:56:51.033Z,38
2023-03-19T09:57:58.007Z,38
2023-03-19T09:59:04.885Z,30
2023-03-19T10:00:11.652Z,32
2023-03-19T10:01:21.555Z,29
2023-03-19T10:02:28.433Z,30
2023-03-19T10:03:35.289Z,51
2023-03-19T10:04:47.150Z,54
2023-03-19T10:05:59.026Z,43
2023-03-19T10:07:13.351Z,28
2023-03-19T10:08:25.891Z,35
2023-03-19T10:09:37.769Z,44
2023-03-19T10:10:49.643Z,26
2023-03-19T10:12:04.435Z,47
2023-03-19T10:13:18.922Z,41
2023-03-19T10:14:30.841Z,49
2023-03-19T10:15:47.922Z,43
2023-03-19T10:16:54.813Z,54
2023-03-19T10:18:01.679Z,41
2023-03-19T10:19:18.627Z,25
2023-03-19T10:20:25.551Z,36
2023-03-19T10:21:33.171Z,33
2023-03-19T10:22:48.006Z,25
2023-03-19T10:23:57.149Z,39
2023-03-19T10:25:07.325Z,48
2023-03-19T10:26:14.214Z,51
2023-03-19T10:27:21.123Z,37
2023-03-19T10:28:27.946Z,33
2023-03-19T10:29:34.845Z,34
2023-03-19T10:30:41.763Z,32
2023-03-19T10:31:48.767Z,33
2023-03-19T10:33:00.707Z,29
2023-03-19T10:34:12.660Z,32
2023-03-19T10:35:27.379Z,38
2023-03-19T10:36:39.367Z,44
2023-03-19T10:37:46.139Z,56
2023-03-19T10:38:53.037Z,63
2023-03-19T10:40:00.671Z,60
2023-03-19T10:41:07.585Z,58
2023-03-19T10:42:22.472Z,40
2023-03-19T10:43:39.447Z,58
2023-03-19T10:44:46.257Z,48
2023-03-19T10:46:00.742Z,48
2023-03-19T10:47:07.654Z,45
2023-03-19T10:48:14.629Z,34
2023-03-19T10:49:21.640Z,34
2023-03-19T10:50:28.416Z,32
2023-03-19T10:51:38.382Z,35
2023-03-19T10:52:53.002Z,46
2023-03-19T10:54:02.573Z,42
2023-03-19T10:55:11.558Z,36
2023-03-19T10:56:21.430Z,37
2023-03-19T10:57:28.219Z,38
2023-03-19T10:58:37.969Z,29
2023-03-19T10:59:44.769Z,32
2023-03-19T11:00:51.667Z,28
2023-03-19T11:02:01.091Z,26
2023-03-19T11:03:18.066Z,29
2023-03-19T11:04:32.875Z,41
2023-03-19T11:05:39.610Z,43
2023-03-19T11:06:46.491Z,58
2023-03-19T11:07:53.478Z,43
2023-03-19T11:09:02.117Z,37
2023-03-19T11:10:11.773Z,28
2023-03-19T11:11:18.538Z,37
2023-03-19T11:12:30.460Z,30
2023-03-19T11:13:40.166Z,25
2023-03-19T11:14:47.024Z,44
2023-03-19T11:15:53.933Z,35
2023-03-19T11:17:02.832Z,49
2023-03-19T11:18:10.256Z,51
2023-03-19T11:19:25.163Z,47
2023-03-19T11:20:31.992Z,36
2023-03-19T11:21:38.739Z,42
2023-03-19T11:22:45.612Z,35
2023-03-19T11:23:52.390Z,31
2023-03-19T11:25:04.347Z,41
2023-03-19T11:26:21.275Z,45
2023-03-19T11:27:28.177Z,56
2023-03-19T11:28:35.138Z,45
2023-03-19T11:29:42.069Z,34
2023-03-19T11:30:48.919Z,33
2023-03-19T11:32:15.142Z,28
2023-03-19T11:33:20.593Z,39
2023-03-19T11:34:35.331Z,43
2023-03-19T11:35:47.314Z,48
2023-03-19T11:37:04.229Z,48
2023-03-19T11:38:19.188Z,31
2023-03-19T11:39:28.922Z,46
2023-03-19T11:40:40.777Z,35
2023-03-19T11:41:50.958Z,31
2023-03-19T11:43:08.017Z,35
2023-03-19T11:44:19.913Z,34
2023-03-19T11:45:39.165Z,30
2023-03-19T11:46:51.754Z,41
2023-03-19T11:47:58.553Z,46
2023-03-19T11:49:15.461Z,32
2023-03-19T11:50:28.169Z,46
2023-03-19T11:51:45.276Z,28
2023-03-19T11:53:02.530Z,35
2023-03-19T11:54:11.894Z,36
2023-03-19T11:55:28.859Z,34
2023-03-19T11:56:40.772Z,44
2023-03-19T11:57:47.643Z,38
2023-03-19T11:59:04.519Z,33
2023-03-19T12:00:21.523Z,25
2023-03-19T12:01:33.410Z,47
2023-03-19T12:02:43.081Z,52
2023-03-19T12:03:52.730Z,38
2023-03-19T12:05:09.603Z,54
2023-03-19T12:06:26.546Z,55
2023-03-19T12:07:43.656Z,44
2023-03-19T12:08:55.538Z,43
2023-03-19T12:10:09.956Z,37
2023-03-19T12:11:21.862Z,35
2023-03-19T12:12:36.571Z,42
2023-03-19T12:13:51.407Z,50
2023-03-19T12:15:06.253Z,38
2023-03-19T12:16:20.816Z,51
2023-03-19T12:17:37.768Z,38
2023-03-19T12:18:47.462Z,25
2023-03-19T12:19:56.875Z,32
2023-03-19T12:21:11.632Z,31
2023-03-19T12:22:21.100Z,42
2023-03-19T12:23:36.117Z,42
2023-03-19T12:24:47.704Z,44
2023-03-19T12:25:59.870Z,29
2023-03-19T12:27:14.112Z,26
2023-03-19T12:28:26.030Z,31
2023-03-19T12:29:39.323Z,50
2023-03-19T12:30:51.234Z,42
2023-03-19T12:32:01.210Z,45
2023-03-19T12:33:10.638Z,25
2023-03-19T12:34:20.085Z,38
2023-03-19T12:35:32.244Z,55
2023-03-19T12:36:39.046Z,48
2023-03-19T12:37:51.021Z,46
2023-03-19T12:39:07.949Z,45
2023-03-19T12:40:17.826Z,38
2023-03-19T12:41:34.900Z,47
2023-03-19T12:42:41.781Z,40
2023-03-19T12:43:48.637Z,43
2023-03-19T12:45:00.535Z,44
2023-03-19T12:46:07.865Z,46
2023-03-19T12:47:19.957Z,47
2023-03-19T12:48:29.694Z,60
2023-03-19T12:49:36.510Z,62
2023-03-19T12:50:46.155Z,49
2023-03-19T12:51:53.016Z,46
2023-03-19T12:53:10.035Z,49
2023-03-19T12:54:21.924Z,50
2023-03-19T12:55:28.880Z,44
2023-03-19T12:56:43.411Z,49
2023-03-19T12:57:56.337Z,58
2023-03-19T12:59:08.301Z,46
2023-03-19T13:00:16.134Z,59
2023-03-19T13:01:26.732Z,57
2023-03-19T13:02:33.637Z,56
2023-03-19T13:03:50.497Z,70
2023-03-19T13:05:05.207Z,71
2023-03-19T13:06:22.117Z,63
2023-03-19T13:07:31.945Z,57
2023-03-19T13:08:46.922Z,53
2023-03-19T13:10:03.993Z,54
2023-03-19T13:11:10.888Z,54
2023-03-19T13:12:17.677Z,54
2023-03-19T13:13:27.140Z,52
2023-03-19T13:14:44.093Z,58
2023-03-19T13:15:55.987Z,60
2023-03-19T13:17:02.787Z,63
2023-03-19T13:18:14.682Z,64
2023-03-19T13:19:26.608Z,56
2023-03-19T13:20:43.780Z,53
2023-03-19T13:21:58.314Z,37
2023-03-19T13:23:05.061Z,47
2023-03-19T13:24:11.958Z,35
2023-03-19T13:25:28.914Z,37
2023-03-19T13:26:38.455Z,43
2023-03-19T13:27:45.242Z,46
2023-03-19T13:28:57.080Z,32
2023-03-19T13:30:10.088Z,40
2023-03-19T13:31:16.819Z,42
2023-03-19T13:32:23.549Z,46
2023-03-19T13:33:40.580Z,40
2023-03-19T13:34:47.485Z,36
2023-03-19T13:35:54.470Z,45
2023-03-19T13:37:01.345Z,50
2023-03-19T13:38:08.380Z,36
2023-03-19T13:39:19.591Z,35
2023-03-19T13:40:29.491Z,25
2023-03-19T13:41:41.416Z,37
2023-03-19T13:42:48.215Z,45
2023-03-19T13:43:55.177Z,38
2023-03-19T13:45:03.821Z,31
2023-03-19T13:46:14.020Z,25
2023-03-19T13:47:20.744Z,36
2023-03-19T13:48:30.519Z,28
2023-03-19T13:49:40.312Z,36
2023-03-19T13:50:47.223Z,46
2023-03-19T13:52:01.950Z,26
2023-03-19T13:53:13.835Z,29
2023-03-19T13:54:25.787Z,29
2023-03-19T13:55:35.348Z,27
2023-03-19T13:56:52.419Z,33
2023-03-19T13:58:02.371Z,34
2023-03-19T13:59:17.090Z,36
2023-03-19T14:00:26.553Z,32
2023-03-19T14:01:43.584Z,33
2023-03-19T14:02:52.410Z,26
2023-03-19T14:03:59.540Z,54
2023-03-19T14:05:09.455Z,36
2023-03-19T14:06:21.629Z,29
2023-03-19T14:07:34.723Z,33
2023-03-19T14:08:44.990Z,38
2023-03-19T14:09:53.102Z,44
2023-03-19T14:11:03.123Z,38
2023-03-19T14:12:10.138Z,43
2023-03-19T14:13:22.052Z,40
2023-03-19T14:14:28.987Z,35
2023-03-19T14:15:39.013Z,31
2023-03-19T14:16:45.914Z,35
2023-03-19T14:17:52.750Z,42
2023-03-19T14:19:05.141Z,43
2023-03-19T14:20:15.731Z,36
2023-03-19T14:21:23.765Z,32
2023-03-19T14:22:35.826Z,26
2023-03-19T14:23:53.169Z,28
2023-03-19T14:24:59.542Z,35
2023-03-19T14:26:16.494Z,43
2023-03-19T14:27:23.304Z,31
2023-03-19T14:28:32.591Z,36
2023-03-19T14:29:44.496Z,33
2023-03-19T14:30:51.303Z,41
2023-03-19T14:31:58.236Z,33
2023-03-19T14:33:08.397Z,26
2023-03-19T14:34:20.173Z,30
2023-03-19T14:35:37.146Z,30
2023-03-19T14:36:43.961Z,34
2023-03-19T14:38:00.860Z,33
2023-03-19T14:39:07.663Z,44
2023-03-19T14:40:22.046Z,35
2023-03-19T14:41:33.846Z,46
2023-03-19T14:42:40.651Z,40
2023-03-19T14:43:50.343Z,50
2023-03-19T14:45:05.008Z,47
2023-03-19T14:46:11.971Z,49
2023-03-19T14:47:28.833Z,52
2023-03-19T14:48:38.201Z,43
2023-03-19T14:49:55.174Z,48
2023-03-19T14:51:12.062Z,48
2023-03-19T14:52:29.059Z,53
2023-03-19T14:53:35.951Z,58
2023-03-19T14:54:42.727Z,44
2023-03-19T14:55:52.085Z,47
2023-03-19T14:56:58.934Z,56
2023-03-19T14:58:10.766Z,68
2023-03-19T14:59:17.617Z,57
2023-03-19T15:00:24.413Z,62
2023-03-19T15:01:31.465Z,56
2023-03-19T15:02:38.274Z,52
2023-03-19T15:03:45.057Z,64
2023-03-19T15:04:51.884Z,51
2023-03-19T15:05:58.649Z,45
2023-03-19T15:07:05.545Z,57
2023-03-19T15:08:12.361Z,56
2023-03-19T15:09:19.163Z,46
2023-03-19T15:10:33.882Z,65
2023-03-19T15:11:48.585Z,53
2023-03-19T15:12:58.132Z,53
2023-03-19T15:14:10.021Z,52
2023-03-19T15:15:24.766Z,48
2023-03-19T15:16:39.441Z,52
2023-03-19T15:18:02.848Z,55
2023-03-19T15:19:06.066Z,53
2023-03-19T15:20:12.835Z,54
2023-03-19T15:21:22.270Z,49
2023-03-19T15:22:29.162Z,43
2023-03-19T15:23:35.969Z,47
2023-03-19T15:24:42.826Z,53
2023-03-19T15:25:49.650Z,50
2023-03-19T15:27:01.638Z,45
2023-03-19T15:28:18.688Z,55
2023-03-19T15:29:25.410Z,54
2023-03-19T15:30:52.156Z,52
2023-03-19T15:31:51.434Z,48
2023-03-19T15:33:07.124Z,59
2023-03-19T15:33:58.708Z,57
2023-03-19T15:35:05.586Z,53
2023-03-19T15:36:12.693Z,52
2023-03-19T15:37:29.308Z,50
2023-03-19T15:38:36.154Z,53
2023-03-19T15:39:43.047Z,58
2023-03-19T15:40:49.867Z,49
2023-03-19T15:41:56.728Z,54
2023-03-19T15:43:03.539Z,60
2023-03-19T15:44:10.485Z,57
2023-03-19T15:45:22.340Z,59
2023-03-19T15:46:29.210Z,62
2023-03-19T15:47:36.075Z,64
2023-03-19T15:48:42.870Z,57
2023-03-19T15:49:55.712Z,61
2023-03-19T15:51:02.552Z,59
2023-03-19T15:52:09.596Z,57
2023-03-19T15:53:16.397Z,65
2023-03-19T15:54:23.157Z,61
2023-03-19T15:55:30.055Z,63
2023-03-19T15:56:36.939Z,67
2023-03-19T15:57:43.809Z,60
2023-03-19T15:58:53.030Z,66
2023-03-19T15:59:57.399Z,62
2023-03-19T16:01:04.393Z,62
2023-03-19T16:02:11.163Z,59
2023-03-19T16:03:20.704Z,64
2023-03-19T16:04:30.459Z,70
2023-03-19T16:05:37.327Z,73
2023-03-19T16:06:44.176Z,68
2023-03-19T16:07:51.017Z,65
2023-03-19T16:09:03.603Z,68
2023-03-19T16:10:18.468Z,70
2023-03-19T16:11:28.438Z,69
2023-03-19T16:12:38.171Z,82
2023-03-19T16:13:44.959Z,84